Time;durP1;ratioP1;P1;durP2;ratioP2;P2;SDS_P1;SDS_P2;PMS_P1;PMS_P2;Temp;Humidity;BMP_temperature;BMP_pressure;BME280_temperature;BME280_humidity;BME280_pressure;Samples;Min_cycle;Max_cycle;Signal;HPM_P1;HPM_P2
2022/03/12 00:00:43;;;;;;;15.60;9.77;;;;;;;8.11;32.36;101713.34;4725990;29;119468;-92
2022/03/12 00:03:10;;;;;;;16.25;9.80;;;;;;;7.89;32.81;101680.03;4744070;29;122002;-90
2022/03/12 00:05:45;;;;;;;16.90;10.05;;;;;;;7.81;31.99;101671.16;4738118;29;121754;-91
2022/03/12 00:08:12;;;;;;;15.95;9.38;;;;;;;7.75;32.43;101664.56;4739355;29;120099;-90
2022/03/12 00:10:41;;;;;;;16.23;10.10;;;;;;;7.85;32.75;101685.53;4758285;29;119789;-94
2022/03/12 00:13:11;;;;;;;17.38;10.00;;;;;;;7.66;32.73;101650.63;4769911;29;119376;-94
2022/03/12 00:15:37;;;;;;;16.30;10.57;;;;;;;7.78;32.72;101671.94;4746623;29;120616;-94
2022/03/12 00:18:06;;;;;;;16.13;9.82;;;;;;;7.51;32.88;101627.38;4738680;29;123737;-95
2022/03/12 00:20:35;;;;;;;16.20;9.68;;;;;;;7.47;32.82;101627.41;4752661;29;119609;-95
2022/03/12 00:23:01;;;;;;;16.35;9.57;;;;;;;7.82;32.41;101685.59;4761978;29;121652;-94
2022/03/12 00:25:26;;;;;;;15.10;10.10;;;;;;;7.89;32.79;101697.19;4739507;29;122901;-91
2022/03/12 00:27:53;;;;;;;16.52;9.82;;;;;;;7.67;32.06;101652.94;4739582;29;119886;-95
2022/03/12 00:30:22;;;;;;;17.20;10.02;;;;;;;7.80;32.72;101682.44;4713986;29;121930;-92
2022/03/12 00:32:51;;;;;;;14.57;9.38;;;;;;;7.79;32.44;101687.16;4741977;29;123983;-93
2022/03/12 00:35:18;;;;;;;16.88;10.27;;;;;;;8.04;32.62;101718.88;4755575;29;119428;-92
2022/03/12 00:37:45;;;;;;;15.73;10.30;;;;;;;7.75;32.79;101680.16;4738606;29;121278;-95
2022/03/12 00:40:12;;;;;;;17.38;10.52;;;;;;;7.77;32.46;101670.38;4713020;29;120119;-95
2022/03/12 00:42:37;;;;;;;19.33;11.68;;;;;;;7.74;32.98;101670.44;4739675;29;121638;-93
2022/03/12 00:45:03;;;;;;;20.52;10.20;;;;;;;7.63;32.40;101641.28;4729530;29;122320;-96
2022/03/12 00:47:31;;;;;;;18.33;9.95;;;;;;;7.46;32.85;101627.81;4757126;29;119893;-95
2022/03/12 00:49:57;;;;;;;17.65;10.15;;;;;;;7.79;32.53;101676.22;4744823;29;119452;-95
2022/03/12 00:52:23;;;;;;;14.45;9.63;;;;;;;7.43;32.93;101618.47;4754561;29;123012;-94
2022/03/12 00:54:49;;;;;;;17.30;10.00;;;;;;;7.78;32.80;101679.34;4751384;29;119740;-92
2022/03/12 00:57:17;;;;;;;17.95;9.82;;;;;;;7.51;32.94;101638.28;4748375;29;122710;-91
2022/03/12 00:59:46;;;;;;;14.70;10.07;;;;;;;7.61;33.06;101648.34;4754005;29;119655;-94
2022/03/12 01:02:15;;;;;;;18.42;10.20;;;;;;;7.93;32.98;101687.00;4743752;29;122389;-92
2022/03/12 01:04:41;;;;;;;15.90;9.90;;;;;;;7.57;32.69;101642.13;4732646;29;122922;-93
2022/03/12 01:07:10;;;;;;;16.52;10.20;;;;;;;7.46;33.00;101616.91;4746306;29;120209;-92
2022/03/12 01:09:36;;;;;;;16.13;10.45;;;;;;;7.43;33.29;101621.22;4758928;29;120354;-91
2022/03/12 01:12:02;;;;;;;17.15;10.13;;;;;;;7.88;33.48;101684.72;4745402;29;122726;-91
2022/03/12 01:14:29;;;;;;;21.85;10.77;;;;;;;7.45;33.07;101635.22;4736679;29;119614;-91
2022/03/12 01:17:00;;;;;;;15.10;10.07;;;;;;;7.60;33.11;101655.75;4763373;29;120199;-94
2022/03/12 01:19:26;;;;;;;15.63;9.65;;;;;;;7.27;33.07;101616.28;4762406;29;119734;-91
2022/03/12 01:21:53;;;;;;;18.52;10.27;;;;;;;7.20;33.19;101597.25;4761973;29;122079;-93
2022/03/12 01:24:21;;;;;;;16.52;10.82;;;;;;;7.20;33.33;101597.25;4760360;29;122613;-90
2022/03/12 01:26:46;;;;;;;16.70;9.15;;;;;;;7.24;33.38;101610.88;4717354;29;120401;-92
2022/03/12 01:29:12;;;;;;;16.77;10.00;;;;;;;7.26;33.43;101619.44;4732346;29;122245;-93
2022/03/12 01:31:38;;;;;;;15.45;10.32;;;;;;;7.31;33.51;101638.09;4761684;29;120228;-91
2022/03/12 01:34:04;;;;;;;18.65;10.15;;;;;;;7.29;33.21;101633.03;4715621;29;119412;-92
2022/03/12 01:36:32;;;;;;;16.30;9.95;;;;;;;7.57;33.30;101683.88;4760232;29;119792;-91
2022/03/12 01:38:59;;;;;;;16.48;10.15;;;;;;;7.31;33.44;101644.31;4730880;29;119744;-92
2022/03/12 01:41:27;;;;;;;18.17;10.20;;;;;;;7.44;34.25;101657.47;4730785;29;120938;-91
2022/03/12 01:43:54;;;;;;;16.83;10.35;;;;;;;7.29;34.22;101643.94;4728347;29;123014;-92
2022/03/12 01:46:34;;;;;;;15.60;9.63;;;;;;;7.60;33.67;101685.03;4730098;29;119386;-91
2022/03/12 01:49:04;;;;;;;18.27;9.85;;;;;;;7.60;34.39;101685.78;4730482;29;122249;-91
2022/03/12 01:51:30;;;;;;;15.82;10.10;;;;;;;7.58;33.51;101682.69;4729867;29;123531;-93
2022/03/12 01:53:56;;;;;;;16.38;9.98;;;;;;;7.44;33.07;101660.22;4743779;29;119698;-93
2022/03/12 01:56:27;;;;;;;14.80;9.90;;;;;;;7.47;33.48;101659.41;4761875;29;119595;-92
2022/03/12 01:58:54;;;;;;;14.70;9.68;;;;;;;7.35;33.77;101645.09;4714390;29;123026;-92
2022/03/12 02:01:21;;;;;;;17.17;9.98;;;;;;;7.51;33.79;101665.59;4761007;29;119426;-92
2022/03/12 02:03:50;;;;;;;14.93;10.07;;;;;;;7.46;34.20;101652.38;4744699;29;121691;-93
2022/03/12 02:06:19;;;;;;;15.68;9.88;;;;;;;7.06;33.64;101597.38;4761372;29;119513;-92
2022/03/12 02:08:49;;;;;;;17.70;10.30;;;;;;;7.31;33.94;101635.34;4712887;29;122213;-92
2022/03/12 02:11:29;;;;;;;14.57;9.25;;;;;;;7.42;33.35;101665.28;4747504;29;121709;-92
2022/03/12 02:14:02;;;;;;;16.30;10.00;;;;;;;7.14;34.29;101626.16;4758544;29;119882;-92
2022/03/12 02:16:29;;;;;;;18.98;10.18;;;;;;;7.44;34.33;101669.16;4745621;29;122172;-92
2022/03/12 02:18:55;;;;;;;15.05;9.27;;;;;;;7.22;34.25;101644.03;4744989;29;123648;-93
2022/03/12 02:21:49;;;;;;;17.85;10.05;;;;;;;7.39;34.57;101664.94;4722889;29;120107;-91
2022/03/12 02:24:17;;;;;;;16.13;9.32;;;;;;;7.29;33.74;101654.88;4730476;29;123213;-93
2022/03/12 02:26:44;;;;;;;20.13;9.93;;;;;;;7.32;33.93;101659.50;4719969;29;119960;-92
2022/03/12 02:29:12;;;;;;;16.45;9.73;;;;;;;7.25;34.26;101648.66;4730238;29;122087;-91
2022/03/12 02:31:55;;;;;;;14.90;9.88;;;;;;;7.31;34.41;101652.50;4744596;29;123859;-91
2022/03/12 02:34:23;;;;;;;15.60;9.35;;;;;;;7.35;34.11;101657.97;4778235;29;119333;-90
2022/03/12 02:36:51;;;;;;;16.58;9.38;;;;;;;7.33;34.27;101654.84;4765034;29;120699;-91
2022/03/12 02:39:19;;;;;;;16.38;9.85;;;;;;;7.32;33.63;101654.06;4743224;29;122970;-91
2022/03/12 02:41:45;;;;;;;15.48;9.30;;;;;;;7.23;34.48;101645.56;4751194;29;120156;-92
2022/03/12 02:44:21;;;;;;;17.20;9.18;;;;;;;7.25;34.45;101648.66;4759060;29;119538;-90
2022/03/12 02:47:11;;;;;;;19.08;10.00;;;;;;;7.27;34.16;101640.06;4763089;29;119463;-92
2022/03/12 02:49:40;;;;;;;15.40;9.65;;;;;;;7.14;34.38;101614.47;4744304;29;122081;-93
2022/03/12 02:52:06;;;;;;;15.65;9.98;;;;;;;7.27;34.11;101646.31;4719466;29;123294;-92
2022/03/12 02:54:32;;;;;;;14.40;9.38;;;;;;;6.88;34.21;101591.31;4738378;29;119340;-90
2022/03/12 02:57:01;;;;;;;17.90;9.60;;;;;;;6.99;34.31;101611.09;4729756;29;121790;-92
2022/03/12 02:59:28;;;;;;;14.95;9.75;;;;;;;6.63;33.59;101554.13;4758814;29;121265;-92
2022/03/12 03:02:00;;;;;;;17.38;9.77;;;;;;;6.81;33.99;101589.41;4748499;29;119935;-93
2022/03/12 03:04:35;;;;;;;14.57;8.95;;;;;;;6.95;33.69;101610.34;4730816;29;121462;-93
2022/03/12 03:07:09;;;;;;;14.85;9.25;;;;;;;6.90;34.23;101608.84;4742932;29;120605;-91
2022/03/12 03:09:37;;;;;;;16.27;9.93;;;;;;;6.80;34.01;101587.88;4729172;29;120704;-90
2022/03/12 03:12:09;;;;;;;14.43;9.43;;;;;;;6.83;34.09;101591.75;4729112;29;122971;-91
2022/03/12 03:14:42;;;;;;;16.45;9.75;;;;;;;7.08;34.43;101639.44;4714861;29;119520;-91
2022/03/12 03:17:10;;;;;;;14.10;9.23;;;;;;;7.06;34.26;101632.84;4743795;29;122147;-91
2022/03/12 03:19:36;;;;;;;15.88;8.95;;;;;;;7.01;34.32;101634.06;4742667;29;123375;-92
2022/03/12 03:22:02;;;;;;;15.02;9.43;;;;;;;6.87;34.77;101617.06;4729576;29;119676;-92
2022/03/12 03:24:31;;;;;;;15.10;9.80;;;;;;;6.57;34.52;101561.16;4742861;29;120995;-95
2022/03/12 03:27:01;;;;;;;16.08;9.77;;;;;;;6.58;34.08;101562.72;4755219;29;122907;-93
2022/03/12 03:29:32;;;;;;;17.58;9.52;;;;;;;6.85;33.59;101617.44;4732667;29;121665;-94
2022/03/12 03:32:01;;;;;;;16.15;8.98;;;;;;;6.51;33.92;101559.28;4732054;29;121888;-93
2022/03/12 03:34:31;;;;;;;13.55;8.90;;;;;;;6.86;33.80;101615.47;4747369;29;120062;-92
2022/03/12 03:36:58;;;;;;;15.25;9.45;;;;;;;6.93;34.25;101615.44;4747511;29;121683;-92
2022/03/12 03:39:26;;;;;;;14.38;9.18;;;;;;;7.05;34.79;101634.81;4761570;29;122895;-92
2022/03/12 03:41:52;;;;;;;16.27;10.00;;;;;;;6.52;34.53;101552.66;4714381;29;119439;-93
2022/03/12 03:44:27;;;;;;;15.20;9.32;;;;;;;6.94;34.25;101627.91;4715599;29;121703;-91
2022/03/12 03:46:56;;;;;;;;;;;;;;;7.06;34.05;101646.50;4714599;29;122722;-93
2022/03/12 03:49:22;;;;;;;14.80;9.00;;;;;;;6.82;33.79;101612.00;4732800;29;119341;-91
2022/03/12 03:51:48;;;;;;;12.80;8.75;;;;;;;6.44;33.76;101552.72;4714154;29;122624;-91
2022/03/12 03:54:17;;;;;;;16.52;10.00;;;;;;;7.02;33.97;101634.84;4729790;29;120006;-91
2022/03/12 03:56:43;;;;;;;18.58;10.23;;;;;;;6.49;34.08;101548.00;4715267;29;122168;-93
2022/03/12 03:59:11;;;;;;;15.60;9.63;;;;;;;6.49;34.48;101548.00;4729675;29;122891;-93
2022/03/12 04:01:41;;;;;;;16.70;9.32;;;;;;;6.68;33.77;101577.47;4740590;29;119401;-92
2022/03/12 04:04:12;;;;;;;14.50;9.65;;;;;;;6.80;34.32;101601.50;4744840;29;120717;-94
2022/03/12 04:06:38;;;;;;;16.48;9.45;;;;;;;6.61;34.13;101575.53;4749140;29;123040;-94
2022/03/12 04:09:04;;;;;;;15.60;8.45;;;;;;;6.40;33.36;101545.75;4750176;29;119225;-94
2022/03/12 04:11:30;;;;;;;15.30;8.88;;;;;;;6.29;33.91;101534.91;4750601;29;119195;-91
2022/03/12 04:13:59;;;;;;;20.52;10.00;;;;;;;6.34;33.71;101550.03;4762155;29;119729;-92
2022/03/12 04:16:31;;;;;;;14.55;9.07;;;;;;;6.76;33.51;101608.94;4729432;29;119744;-92
2022/03/12 04:19:07;;;;;;;16.08;10.02;;;;;;;6.41;33.62;101567.13;4729522;29;122867;-92
2022/03/12 04:21:35;;;;;;;15.20;9.00;;;;;;;6.37;34.06;101558.19;4731090;29;119505;-91
2022/03/12 04:24:03;;;;;;;15.18;9.02;;;;;;;6.37;33.91;101557.41;4733300;29;122157;-93
2022/03/12 04:26:33;;;;;;;16.48;9.38;;;;;;;6.54;33.89;101594.69;4744055;29;122746;-92
2022/03/12 04:28:59;;;;;;;16.65;9.50;;;;;;;6.30;33.60;101557.47;4733778;29;119325;-92
2022/03/12 04:31:25;;;;;;;14.43;8.98;;;;;;;6.62;34.00;101598.91;4747851;29;121595;-92
2022/03/12 04:33:51;;;;;;;14.85;9.82;;;;;;;6.59;33.64;101605.16;4765894;29;120052;-92
2022/03/12 04:36:19;;;;;;;15.20;9.25;;;;;;;6.40;34.42;101579.22;4748229;29;121863;-92
2022/03/12 04:38:46;;;;;;;14.40;9.98;;;;;;;6.29;33.86;101573.03;4765755;29;122446;-91
2022/03/12 04:41:19;;;;;;;15.33;9.73;;;;;;;6.30;34.61;101573.81;4733520;29;119673;-92
2022/03/12 04:43:47;;;;;;;15.18;8.70;;;;;;;6.63;33.88;101624.25;4747454;29;122048;-93
2022/03/12 04:46:13;;;;;;;15.10;9.40;;;;;;;6.30;34.92;101582.00;4749012;29;120110;-93
2022/03/12 04:48:41;;;;;;;14.88;9.20;;;;;;;6.44;34.99;101601.00;4749055;29;119858;-88
2022/03/12 04:51:07;;;;;;;17.60;9.50;;;;;;;6.77;35.31;101657.63;4737942;29;122765;-88
2022/03/12 04:53:33;;;;;;;15.13;9.55;;;;;;;6.42;34.99;101609.56;4744744;29;122480;-88
2022/03/12 04:55:58;;;;;;;14.65;9.82;;;;;;;6.76;34.65;101656.06;4766628;29;119368;-89
2022/03/12 04:58:24;;;;;;;17.73;9.75;;;;;;;6.72;34.71;101655.31;4760703;29;123240;-88
2022/03/12 05:00:49;;;;;;;14.50;9.02;;;;;;;6.69;34.75;101667.03;4722295;29;120145;-87
2022/03/12 05:03:19;;;;;;;15.57;9.27;;;;;;;6.55;35.37;101642.56;4731086;29;122054;-88
2022/03/12 05:05:50;;;;;;;17.67;9.18;;;;;;;6.52;34.66;101643.38;4753029;29;121318;-88
2022/03/12 05:08:24;;;;;;;12.73;8.82;;;;;;;6.64;34.68;101656.56;4758014;29;119330;-88
2022/03/12 05:10:51;;;;;;;15.85;9.85;;;;;;;6.62;35.55;101653.44;4749256;29;121874;-89
2022/03/12 05:13:27;;;;;;;17.25;9.50;;;;;;;6.28;34.20;101600.69;4716922;29;123044;-92
2022/03/12 05:15:56;;;;;;;17.83;10.18;;;;;;;6.61;35.26;101653.81;4760342;29;119729;-90
2022/03/12 05:18:23;;;;;;;13.32;8.73;;;;;;;6.58;35.06;101660.06;4731907;29;122488;-90
2022/03/12 05:20:50;;;;;;;16.13;9.25;;;;;;;6.55;35.10;101655.44;4758200;29;119723;-90
2022/03/12 05:23:19;;;;;;;15.70;9.32;;;;;;;6.15;35.81;101603.88;4731649;29;122187;-90
2022/03/12 05:25:47;;;;;;;15.40;9.60;;;;;;;6.38;35.55;101646.16;4745108;29;120312;-88
2022/03/12 05:28:16;;;;;;;13.63;9.20;;;;;;;5.99;35.60;101591.91;4727349;29;119607;-89
2022/03/12 05:30:49;;;;;;;14.52;9.30;;;;;;;6.30;35.50;101628.31;4759989;29;120329;-88
2022/03/12 05:33:17;;;;;;;14.95;9.45;;;;;;;5.99;35.10;101600.06;4758801;29;123433;-88
2022/03/12 05:35:53;;;;;;;17.23;9.43;;;;;;;6.26;35.02;101639.22;4746086;29;120449;-94
2022/03/12 05:38:19;;;;;;;15.20;9.85;;;;;;;6.02;35.07;101613.66;4747083;29;122182;-92
2022/03/12 05:40:48;;;;;;;14.90;9.60;;;;;;;5.88;34.59;101572.84;4724699;29;119481;-94
2022/03/12 05:43:15;;;;;;;18.35;9.77;;;;;;;6.38;34.70;101646.16;4731475;29;120815;-91
2022/03/12 05:45:45;;;;;;;15.25;9.57;;;;;;;6.13;35.02;101617.09;4715348;29;122808;-91
2022/03/12 05:48:14;;;;;;;17.00;9.63;;;;;;;6.18;34.98;101626.06;4715641;29;119527;-92
2022/03/12 05:50:41;;;;;;;16.27;8.95;;;;;;;6.20;34.86;101642.78;4729848;29;120384;-92
2022/03/12 05:53:10;;;;;;;14.43;9.23;;;;;;;5.85;34.53;101592.69;4756010;29;123097;-91
2022/03/12 05:55:39;;;;;;;13.85;8.93;;;;;;;6.35;34.67;101669.53;4731778;29;119406;-91
2022/03/12 05:58:10;;;;;;;16.13;9.63;;;;;;;6.13;34.55;101649.00;4731506;29;121747;-91
2022/03/12 06:00:36;;;;;;;15.10;9.63;;;;;;;5.80;35.14;101587.66;4734491;29;123252;-91
2022/03/12 06:03:08;;;;;;;16.98;9.75;;;;;;;6.05;34.90;101636.59;4733835;29;121976;-91
2022/03/12 06:05:40;;;;;;;15.43;9.20;;;;;;;5.72;34.87;101581.47;4762167;29;120041;-94
2022/03/12 06:08:21;;;;;;;18.25;9.63;;;;;;;6.17;34.90;101641.63;4744060;29;120036;-91
2022/03/12 06:10:51;;;;;;;16.00;9.38;;;;;;;6.17;34.66;101640.84;4746339;29;119845;-93
2022/03/12 06:13:27;;;;;;;16.27;9.50;;;;;;;6.39;34.80;101686.69;4732093;29;123026;-90
2022/03/12 06:16:00;;;;;;;19.00;10.38;;;;;;;5.95;34.66;101612.94;4723120;29;119749;-91
2022/03/12 06:18:34;;;;;;;15.75;9.55;;;;;;;6.46;34.86;101685.84;4712619;29;122068;-89
2022/03/12 06:21:04;;;;;;;18.38;9.60;;;;;;;6.51;34.40;101698.28;4744159;29;123003;-91
2022/03/12 06:23:30;;;;;;;17.15;9.40;;;;;;;6.18;34.77;101656.03;4748067;29;120125;-91
2022/03/12 06:25:56;;;;;;;16.50;9.48;;;;;;;6.56;34.48;101693.19;4744713;29;120091;-89
2022/03/12 06:28:23;;;;;;;17.25;9.73;;;;;;;6.57;34.52;101693.97;4733873;29;120197;-89
2022/03/12 06:30:53;;;;;;;16.85;9.82;;;;;;;6.65;34.59;101699.00;4759468;29;122358;-92
2022/03/12 06:33:20;;;;;;;14.27;9.15;;;;;;;6.49;34.66;101663.25;4745656;29;121761;-92
2022/03/12 06:35:48;;;;;;;14.50;9.32;;;;;;;6.47;34.05;101665.59;4731845;29;120427;-91
2022/03/12 06:38:18;;;;;;;15.05;9.40;;;;;;;6.19;34.13;101617.47;4746243;29;121446;-94
2022/03/12 06:40:44;;;;;;;16.48;9.88;;;;;;;6.58;33.83;101670.97;4745415;29;123296;-95
2022/03/12 06:43:19;;;;;;;14.93;9.70;;;;;;;6.21;34.64;101611.63;4746680;29;121018;-93
2022/03/12 06:45:51;;;;;;;16.00;9.80;;;;;;;6.56;34.42;101655.03;4751033;29;122245;-93
2022/03/12 06:48:19;;;;;;;15.30;9.13;;;;;;;6.40;34.47;101622.03;4759255;29;119439;-92
2022/03/12 06:50:48;;;;;;;14.65;8.90;;;;;;;6.52;34.39;101643.38;4745282;29;121667;-93
2022/03/12 06:53:14;;;;;;;15.82;9.32;;;;;;;6.42;33.58;101625.91;4744080;29;120576;-90
2022/03/12 06:55:41;;;;;;;13.10;9.18;;;;;;;6.97;34.12;101715.16;4729528;29;119886;-89
2022/03/12 06:58:08;;;;;;;15.70;9.13;;;;;;;6.67;33.95;101668.59;4752558;29;121665;-91
2022/03/12 07:00:34;;;;;;;14.18;9.13;;;;;;;6.44;33.55;101633.69;4729245;29;121246;-92
2022/03/12 07:03:03;;;;;;;15.18;9.05;;;;;;;6.51;33.76;101639.09;4730615;29;119769;-91
2022/03/12 07:05:29;;;;;;;16.33;9.45;;;;;;;6.75;33.59;101670.88;4740651;29;122012;-91
2022/03/12 07:07:56;;;;;;;14.40;9.20;;;;;;;6.94;33.68;101696.09;4754161;29;119638;-92
2022/03/12 07:10:24;;;;;;;13.70;8.93;;;;;;;6.97;33.13;101701.50;4737146;29;121857;-92
2022/03/12 07:12:53;;;;;;;15.45;9.50;;;;;;;6.59;33.48;101645.28;4747210;29;122183;-92
2022/03/12 07:15:29;;;;;;;;;;;;;;;;;;;;;
2022/03/12 07:17:56;;;;;;;15.23;9.40;;;;;;;7.30;32.94;101742.97;4763554;29;121474;-92
2022/03/12 07:20:30;;;;;;;17.33;9.60;;;;;;;6.69;33.37;101647.16;4762062;29;120354;-93
2022/03/12 07:22:58;;;;;;;16.97;9.73;;;;;;;7.06;32.93;101696.38;4736030;29;121194;-92
2022/03/12 07:25:34;;;;;;;13.73;9.85;;;;;;;6.79;33.32;101651.75;4743216;29;119563;-92
2022/03/12 07:28:00;;;;;;;15.10;9.20;;;;;;;7.19;33.39;101715.78;4744886;29;122812;-92
2022/03/12 07:30:30;;;;;;;16.33;9.95;;;;;;;6.94;34.04;101663.34;4741688;29;119730;-92
2022/03/12 07:33:07;;;;;;;14.48;8.77;;;;;;;7.37;33.89;101715.66;4743082;29;122447;-94
2022/03/12 07:35:33;;;;;;;16.35;9.52;;;;;;;7.61;33.65;101747.41;4729114;29;119517;-93
2022/03/12 07:38:01;;;;;;;15.25;9.48;;;;;;;7.44;32.87;101725.72;4745031;29;120043;-91
2022/03/12 07:40:27;;;;;;;15.05;9.43;;;;;;;7.23;33.22;101683.78;4735347;29;122649;-91
2022/03/12 07:42:54;;;;;;;13.45;9.05;;;;;;;7.18;32.96;101665.13;4721736;29;120087;-93
2022/03/12 07:45:23;;;;;;;14.93;10.00;;;;;;;7.53;32.39;101713.16;4745102;29;119344;-90
2022/03/12 07:47:52;;;;;;;15.88;9.93;;;;;;;7.33;32.85;101666.56;4729433;29;123221;-91
2022/03/12 07:50:19;;;;;;;15.38;9.32;;;;;;;7.66;32.91;101705.25;4747876;29;119769;-91
2022/03/12 07:52:48;;;;;;;13.45;8.57;;;;;;;7.81;32.99;101708.63;4738272;29;122221;-89
2022/03/12 07:55:14;;;;;;;13.55;8.98;;;;;;;7.63;31.99;101673.28;4729908;29;119849;-88
2022/03/12 07:57:41;;;;;;;14.70;9.38;;;;;;;7.86;32.08;101708.16;4716798;29;122367;-89
2022/03/12 08:00:10;;;;;;;14.63;8.95;;;;;;;8.18;32.09;101741.38;4746294;29;123131;-89
2022/03/12 08:02:45;;;;;;;15.45;9.57;;;;;;;8.11;31.68;101713.34;4717648;29;119391;-91
2022/03/12 08:05:12;;;;;;;14.63;9.27;;;;;;;8.00;32.58;101669.75;4747418;29;122000;-91
2022/03/12 08:07:41;;;;;;;14.23;8.95;;;;;;;8.20;31.40;101683.56;4745858;29;123325;-90
2022/03/12 08:10:08;;;;;;;12.63;8.20;;;;;;;8.20;31.16;101675.38;4728379;29;119555;-91
2022/03/12 08:12:35;;;;;;;13.90;9.32;;;;;;;8.65;31.31;101736.16;4721436;29;121584;-90
2022/03/12 08:15:08;;;;;;;16.27;8.65;;;;;;;8.38;31.41;101683.38;4749272;29;119312;-91
2022/03/12 08:17:36;;;;;;;13.20;8.88;;;;;;;8.79;31.25;101733.22;4750459;29;119606;-91
2022/03/12 08:20:05;;;;;;;11.65;8.63;;;;;;;8.65;32.34;101688.88;4730573;29;122047;-90
2022/03/12 08:22:30;;;;;;;14.63;8.73;;;;;;;9.04;31.45;101738.34;4751560;29;119900;-91
2022/03/12 08:24:56;;;;;;;13.95;8.75;;;;;;;8.86;31.09;101707.72;4737344;29;119982;-92
2022/03/12 08:27:23;;;;;;;12.90;8.95;;;;;;;9.07;30.58;101714.84;4731189;29;123062;-93
2022/03/12 08:29:51;;;;;;;15.23;8.82;;;;;;;9.01;31.43;101686.41;4740145;29;119340;-93
2022/03/12 08:32:19;;;;;;;13.55;9.00;;;;;;;9.17;30.13;101700.97;4737590;29;122021;-95
2022/03/12 08:34:45;;;;;;;11.80;8.40;;;;;;;9.22;30.46;101714.19;4738409;29;122511;-88
2022/03/12 08:37:12;;;;;;;12.68;9.13;;;;;;;9.30;30.41;101689.44;4751703;29;121956;-86
2022/03/12 08:39:38;;;;;;;13.13;8.88;;;;;;;9.73;29.39;101747.03;4753218;29;119774;-90
2022/03/12 08:42:08;;;;;;;16.48;8.85;;;;;;;9.72;30.32;101734.50;4762756;29;120180;-90
2022/03/12 08:44:35;;;;;;;13.38;8.68;;;;;;;9.49;29.86;101699.69;4716730;29;122198;-90
2022/03/12 08:47:00;;;;;;;13.45;8.70;;;;;;;9.70;30.05;101714.94;4741309;29;122472;-85
2022/03/12 08:49:30;;;;;;;14.20;8.73;;;;;;;9.72;29.27;101710.63;4758805;29;121060;-85
2022/03/12 08:51:56;;;;;;;14.55;9.10;;;;;;;9.86;29.58;101712.31;4754594;29;122242;-85
2022/03/12 08:54:21;;;;;;;13.23;8.32;;;;;;;10.04;29.83;101731.94;4744621;29;122900;-85
2022/03/12 08:56:47;;;;;;;13.48;8.48;;;;;;;9.88;29.39;101706.41;4748133;29;119922;-85
2022/03/12 08:59:13;;;;;;;13.23;8.05;;;;;;;10.21;30.08;101743.03;4730519;29;122624;-87
2022/03/12 09:01:41;;;;;;;13.30;8.40;;;;;;;10.11;30.53;101734.53;4731498;29;119463;-93
2022/03/12 09:04:09;;;;;;;13.65;8.35;;;;;;;9.74;29.63;101677.31;4752775;29;121054;-92
2022/03/12 09:06:44;;;;;;;14.63;9.27;;;;;;;10.12;29.41;101730.59;4729300;29;123013;-92
2022/03/12 09:09:09;;;;;;;14.93;9.15;;;;;;;10.04;29.49;101722.94;4761776;29;119705;-93
2022/03/12 09:11:37;;;;;;;12.60;8.63;;;;;;;9.70;29.26;101669.19;4746509;29;119980;-91
2022/03/12 09:14:03;;;;;;;14.55;8.73;;;;;;;9.66;29.14;101678.63;4746606;29;122336;-93
2022/03/12 09:16:32;;;;;;;11.98;8.75;;;;;;;9.91;29.40;101725.53;4731196;29;119549;-92
2022/03/12 09:19:02;;;;;;;14.40;8.93;;;;;;;9.63;28.84;101672.03;4748656;29;121859;-92
2022/03/12 09:21:28;;;;;;;11.27;8.20;;;;;;;10.09;29.12;101747.13;4730245;29;119479;-92
2022/03/12 09:23:54;;;;;;;13.10;8.63;;;;;;;9.84;28.47;101731.91;4746493;29;121556;-89
2022/03/12 09:26:21;;;;;;;12.23;8.68;;;;;;;9.81;29.10;101727.28;4732072;29;123221;-89
2022/03/12 09:28:48;;;;;;;12.00;8.60;;;;;;;10.00;28.93;101744.19;4745621;29;120081;-90
2022/03/12 09:31:16;;;;;;;12.55;8.85;;;;;;;9.49;29.71;101677.78;4737226;29;121316;-89
2022/03/12 09:33:42;;;;;;;15.00;8.90;;;;;;;9.93;31.21;101742.31;4746177;29;120336;-90
2022/03/12 09:36:08;;;;;;;14.60;8.98;;;;;;;9.98;29.92;101744.59;4731483;29;121954;-90
2022/03/12 09:38:36;;;;;;;17.63;8.73;;;;;;;9.83;30.05;101705.72;4735627;29;122149;-89
2022/03/12 09:41:01;;;;;;;15.68;9.10;;;;;;;9.88;29.69;101698.19;4729526;29;120355;-90
2022/03/12 09:43:27;;;;;;;14.10;9.43;;;;;;;9.92;29.25;101693.41;4736943;29;119725;-89
2022/03/12 09:45:53;;;;;;;13.18;8.75;;;;;;;10.12;29.62;101721.59;4750816;29;123797;-89
2022/03/12 09:48:21;;;;;;;11.13;8.30;;;;;;;10.33;30.15;101745.91;4756024;29;119850;-87
2022/03/12 09:50:47;;;;;;;15.05;8.85;;;;;;;10.43;29.71;101744.94;4745221;29;121496;-87
2022/03/12 09:53:13;;;;;;;15.82;8.65;;;;;;;10.06;29.39;101698.63;4727601;29;123037;-86
2022/03/12 09:55:39;;;;;;;15.23;8.90;;;;;;;10.40;29.10;101740.25;4739664;29;120345;-86
2022/03/12 09:58:05;;;;;;;11.80;8.85;;;;;;;10.19;28.99;101704.25;4747323;29;121818;-92
2022/03/12 10:00:31;;;;;;;14.90;9.30;;;;;;;10.20;29.45;101692.09;4747797;29;122849;-88
2022/03/12 10:02:57;;;;;;;14.30;9.32;;;;;;;10.31;29.55;101701.66;4744609;29;121722;-91
2022/03/12 10:05:23;;;;;;;13.73;8.70;;;;;;;10.08;28.83;101661.38;4764168;29;120271;-89
2022/03/12 10:07:51;;;;;;;12.93;8.85;;;;;;;10.32;28.84;101686.00;4756394;29;119854;-91
2022/03/12 10:10:22;;;;;;;12.50;8.70;;;;;;;10.19;29.09;101663.91;4730937;29;121504;-91
2022/03/12 10:12:55;;;;;;;13.30;8.90;;;;;;;10.18;28.73;101650.63;4756045;29;122564;-89
2022/03/12 10:15:21;;;;;;;13.80;9.18;;;;;;;10.45;28.39;101690.41;4751551;29;119606;-90
2022/03/12 10:17:48;;;;;;;13.23;8.88;;;;;;;10.60;28.80;101714.78;4713475;29;121781;-89
2022/03/12 10:20:17;;;;;;;14.38;9.40;;;;;;;10.12;29.32;101647.59;4734897;29;121097;-85
2022/03/12 10:22:45;;;;;;;12.70;9.43;;;;;;;10.52;30.13;101694.97;4765991;29;119533;-83
2022/03/12 10:25:16;;;;;;;14.70;9.38;;;;;;;10.65;28.75;101700.56;4738012;29;122770;-83
2022/03/12 10:27:43;;;;;;;14.60;9.43;;;;;;;10.45;28.91;101668.47;4731329;29;119709;-83
2022/03/12 10:30:10;;;;;;;16.60;9.82;;;;;;;10.90;30.16;101705.50;4731599;29;121969;-83
2022/03/12 10:32:45;;;;;;;15.98;9.20;;;;;;;10.93;29.07;101707.41;4744623;29;122906;-83
2022/03/12 10:35:17;;;;;;;14.23;9.02;;;;;;;11.01;28.75;101711.50;4745401;29;120777;-83
2022/03/12 10:37:43;;;;;;;19.00;9.43;;;;;;;10.60;28.26;101643.44;4737108;29;121959;-83
2022/03/12 10:40:23;;;;;;;11.43;8.65;;;;;;;10.89;29.43;101677.28;5042176;27;119614;-81
2022/03/12 10:42:57;;;;;;;15.02;10.13;;;;;;;11.19;28.84;101716.59;5041229;27;120102;-82
2022/03/12 10:45:25;;;;;;;13.20;9.02;;;;;;;11.20;28.67;101701.66;5042512;27;119593;-82
2022/03/12 10:47:56;;;;;;;16.48;10.43;;;;;;;11.29;28.78;101710.03;5040643;27;123117;-82
2022/03/12 10:50:25;;;;;;;17.52;10.02;;;;;;;11.32;28.45;101706.44;5042842;27;121895;-82
2022/03/12 10:52:53;;;;;;;14.18;9.68;;;;;;;11.30;28.98;101700.59;5025432;27;121941;-81
2022/03/12 10:55:28;;;;;;;12.68;9.48;;;;;;;11.31;29.33;101696.66;5041408;27;120286;-83
2022/03/12 10:58:15;;;;;;;15.35;9.20;;;;;;;11.44;28.87;101700.25;5041704;27;121515;-82
2022/03/12 11:01:01;;;;;;;14.77;9.85;;;;;;;11.32;28.68;101673.47;5029549;27;122722;-82
2022/03/12 11:03:32;;;;;;;13.55;9.05;;;;;;;11.47;28.86;101679.38;5043951;27;120214;-82
2022/03/12 11:05:58;;;;;;;14.10;9.65;;;;;;;11.60;28.80;101692.00;5010019;27;122346;-84
2022/03/12 11:08:32;;;;;;;15.48;9.73;;;;;;;11.50;28.62;101665.56;5057135;27;119795;-85
2022/03/12 11:11:13;;;;;;;15.40;9.80;;;;;;;11.41;28.56;101648.16;5023855;27;119446;-84
2022/03/12 11:13:46;;;;;;;15.10;9.80;;;;;;;11.77;29.30;101692.72;5024574;27;121484;-84
2022/03/12 11:16:33;;;;;;;15.57;9.77;;;;;;;11.82;28.86;101685.94;5041908;27;122278;-84
2022/03/12 11:19:07;;;;;;;12.95;8.93;;;;;;;11.87;28.29;101691.69;5017419;27;119424;-84
2022/03/12 11:21:40;;;;;;;12.70;9.07;;;;;;;11.75;28.74;101672.38;5038243;27;119618;-83
2022/03/12 11:24:09;;;;;;;12.93;9.57;;;;;;;11.81;28.75;101678.91;5028381;27;123299;-83